sensor_id;sensor_type;location;lat;lon;timestamp;P1;durP1;ratioP1;P2;durP2;ratioP2
5121;SDS011;2563;52.242;7.956;2023-06-22T00:00:51;14.70;;;7.60;;
5121;SDS011;2563;52.242;7.956;2023-06-22T00:03:18;10.27;;;6.83;;
5121;SDS011;2563;52.242;7.956;2023-06-22T00:05:44;11.50;;;6.60;;
5121;SDS011;2563;52.242;7.956;2023-06-22T00:08:10;10.07;;;6.53;;
5121;SDS011;2563;52.242;7.956;2023-06-22T00:10:36;9.40;;;6.30;;
5121;SDS011;2563;52.242;7.956;2023-06-22T00:13:01;11.40;;;7.13;;
5121;SDS011;2563;52.242;7.956;2023-06-22T00:15:26;11.33;;;7.07;;
5121;SDS011;2563;52.242;7.956;2023-06-22T00:17:52;10.07;;;6.63;;
5121;SDS011;2563;52.242;7.956;2023-06-22T00:20:17;13.20;;;7.50;;
5121;SDS011;2563;52.242;7.956;2023-06-22T00:22:43;10.67;;;7.43;;
5121;SDS011;2563;52.242;7.956;2023-06-22T00:25:09;10.83;;;6.87;;
5121;SDS011;2563;52.242;7.956;2023-06-22T00:27:35;12.90;;;7.47;;
5121;SDS011;2563;52.242;7.956;2023-06-22T00:30:01;11.63;;;8.00;;
5121;SDS011;2563;52.242;7.956;2023-06-22T00:32:27;13.53;;;6.80;;
5121;SDS011;2563;52.242;7.956;2023-06-22T00:34:52;12.77;;;7.80;;
5121;SDS011;2563;52.242;7.956;2023-06-22T00:37:17;12.50;;;8.30;;
5121;SDS011;2563;52.242;7.956;2023-06-22T00:39:43;11.60;;;7.73;;
5121;SDS011;2563;52.242;7.956;2023-06-22T00:42:09;10.70;;;7.27;;
5121;SDS011;2563;52.242;7.956;2023-06-22T00:44:37;12.43;;;7.43;;
5121;SDS011;2563;52.242;7.956;2023-06-22T00:47:03;12.43;;;7.40;;
5121;SDS011;2563;52.242;7.956;2023-06-22T00:49:29;12.23;;;7.13;;
5121;SDS011;2563;52.242;7.956;2023-06-22T00:51:55;15.00;;;8.20;;
5121;SDS011;2563;52.242;7.956;2023-06-22T00:54:22;12.70;;;8.03;;
5121;SDS011;2563;52.242;7.956;2023-06-22T00:56:55;12.60;;;7.30;;
5121;SDS011;2563;52.242;7.956;2023-06-22T00:59:23;13.00;;;8.90;;
5121;SDS011;2563;52.242;7.956;2023-06-22T01:01:48;12.37;;;8.10;;
5121;SDS011;2563;52.242;7.956;2023-06-22T01:04:13;12.83;;;8.30;;
5121;SDS011;2563;52.242;7.956;2023-06-22T01:06:45;12.63;;;7.77;;
5121;SDS011;2563;52.242;7.956;2023-06-22T01:09:20;13.63;;;7.63;;
5121;SDS011;2563;52.242;7.956;2023-06-22T01:11:53;11.00;;;6.70;;
5121;SDS011;2563;52.242;7.956;2023-06-22T01:14:30;11.73;;;7.00;;
5121;SDS011;2563;52.242;7.956;2023-06-22T01:17:03;11.80;;;7.00;;
5121;SDS011;2563;52.242;7.956;2023-06-22T01:19:45;11.83;;;7.40;;
5121;SDS011;2563;52.242;7.956;2023-06-22T01:22:14;11.67;;;7.63;;
5121;SDS011;2563;52.242;7.956;2023-06-22T01:30:29;15.27;;;7.90;;
5121;SDS011;2563;52.242;7.956;2023-06-22T01:32:58;16.07;;;8.00;;
5121;SDS011;2563;52.242;7.956;2023-06-22T01:35:24;13.27;;;8.80;;
5121;SDS011;2563;52.242;7.956;2023-06-22T01:37:50;12.60;;;8.00;;
5121;SDS011;2563;52.242;7.956;2023-06-22T01:40:16;13.53;;;8.60;;
5121;SDS011;2563;52.242;7.956;2023-06-22T01:42:42;17.23;;;8.00;;
5121;SDS011;2563;52.242;7.956;2023-06-22T01:45:08;17.60;;;9.87;;
5121;SDS011;2563;52.242;7.956;2023-06-22T01:47:36;11.83;;;7.80;;
5121;SDS011;2563;52.242;7.956;2023-06-22T01:50:01;12.83;;;8.43;;
5121;SDS011;2563;52.242;7.956;2023-06-22T01:52:27;14.40;;;7.63;;
5121;SDS011;2563;52.242;7.956;2023-06-22T01:54:52;15.53;;;8.57;;
5121;SDS011;2563;52.242;7.956;2023-06-22T01:57:18;15.10;;;9.43;;
5121;SDS011;2563;52.242;7.956;2023-06-22T02:02:21;16.43;;;8.40;;
5121;SDS011;2563;52.242;7.956;2023-06-22T02:04:56;12.63;;;8.40;;
5121;SDS011;2563;52.242;7.956;2023-06-22T02:07:26;13.63;;;8.60;;
5121;SDS011;2563;52.242;7.956;2023-06-22T02:09:57;13.33;;;8.73;;
5121;SDS011;2563;52.242;7.956;2023-06-22T02:12:25;14.70;;;8.70;;
5121;SDS011;2563;52.242;7.956;2023-06-22T02:14:52;15.03;;;8.47;;
5121;SDS011;2563;52.242;7.956;2023-06-22T02:17:19;14.40;;;7.80;;
5121;SDS011;2563;52.242;7.956;2023-06-22T02:19:45;14.67;;;9.10;;
5121;SDS011;2563;52.242;7.956;2023-06-22T02:22:10;13.33;;;8.83;;
5121;SDS011;2563;52.242;7.956;2023-06-22T02:24:37;14.83;;;9.37;;
5121;SDS011;2563;52.242;7.956;2023-06-22T02:27:03;14.10;;;8.00;;
5121;SDS011;2563;52.242;7.956;2023-06-22T02:29:29;13.97;;;8.10;;
5121;SDS011;2563;52.242;7.956;2023-06-22T02:31:55;13.43;;;9.20;;
5121;SDS011;2563;52.242;7.956;2023-06-22T02:34:23;15.30;;;9.27;;
5121;SDS011;2563;52.242;7.956;2023-06-22T02:36:49;13.37;;;9.20;;
5121;SDS011;2563;52.242;7.956;2023-06-22T02:39:21;17.10;;;10.70;;
5121;SDS011;2563;52.242;7.956;2023-06-22T02:41:53;17.17;;;11.20;;
5121;SDS011;2563;52.242;7.956;2023-06-22T02:44:19;14.83;;;9.90;;
5121;SDS011;2563;52.242;7.956;2023-06-22T02:46:45;18.10;;;9.83;;
5121;SDS011;2563;52.242;7.956;2023-06-22T02:49:12;16.80;;;9.93;;
5121;SDS011;2563;52.242;7.956;2023-06-22T02:51:38;22.53;;;11.03;;
5121;SDS011;2563;52.242;7.956;2023-06-22T02:54:06;16.63;;;10.70;;
5121;SDS011;2563;52.242;7.956;2023-06-22T02:56:32;14.37;;;10.10;;
5121;SDS011;2563;52.242;7.956;2023-06-22T02:58:57;16.43;;;9.73;;
5121;SDS011;2563;52.242;7.956;2023-06-22T03:01:29;17.00;;;9.50;;
5121;SDS011;2563;52.242;7.956;2023-06-22T03:04:03;16.00;;;8.83;;
5121;SDS011;2563;52.242;7.956;2023-06-22T03:06:29;16.33;;;9.80;;
5121;SDS011;2563;52.242;7.956;2023-06-22T03:09:01;14.53;;;9.67;;
5121;SDS011;2563;52.242;7.956;2023-06-22T03:11:29;17.60;;;8.40;;
5121;SDS011;2563;52.242;7.956;2023-06-22T03:13:55;18.67;;;9.43;;
5121;SDS011;2563;52.242;7.956;2023-06-22T03:16:21;13.30;;;8.20;;
5121;SDS011;2563;52.242;7.956;2023-06-22T03:18:46;14.97;;;9.00;;
5121;SDS011;2563;52.242;7.956;2023-06-22T03:21:11;13.00;;;8.67;;
5121;SDS011;2563;52.242;7.956;2023-06-22T03:23:37;16.97;;;9.43;;
5121;SDS011;2563;52.242;7.956;2023-06-22T03:26:02;15.10;;;9.80;;
5121;SDS011;2563;52.242;7.956;2023-06-22T03:28:29;16.40;;;9.47;;
5121;SDS011;2563;52.242;7.956;2023-06-22T03:30:54;15.57;;;10.23;;
5121;SDS011;2563;52.242;7.956;2023-06-22T03:33:22;17.00;;;10.23;;
5121;SDS011;2563;52.242;7.956;2023-06-22T03:35:47;16.00;;;10.60;;
5121;SDS011;2563;52.242;7.956;2023-06-22T03:38:12;18.70;;;10.30;;
5121;SDS011;2563;52.242;7.956;2023-06-22T03:40:38;16.97;;;10.70;;
5121;SDS011;2563;52.242;7.956;2023-06-22T03:43:03;21.03;;;10.40;;
5121;SDS011;2563;52.242;7.956;2023-06-22T03:45:29;15.17;;;10.30;;
5121;SDS011;2563;52.242;7.956;2023-06-22T03:47:54;16.73;;;10.00;;
5121;SDS011;2563;52.242;7.956;2023-06-22T03:50:19;16.33;;;9.90;;
5121;SDS011;2563;52.242;7.956;2023-06-22T03:52:47;15.80;;;10.10;;
5121;SDS011;2563;52.242;7.956;2023-06-22T03:55:13;21.50;;;11.53;;
5121;SDS011;2563;52.242;7.956;2023-06-22T03:57:39;14.77;;;9.53;;
5121;SDS011;2563;52.242;7.956;2023-06-22T04:00:04;16.10;;;10.03;;
5121;SDS011;2563;52.242;7.956;2023-06-22T04:02:34;20.20;;;10.40;;
5121;SDS011;2563;52.242;7.956;2023-06-22T04:05:00;16.93;;;10.60;;
5121;SDS011;2563;52.242;7.956;2023-06-22T04:07:25;17.27;;;10.23;;
5121;SDS011;2563;52.242;7.956;2023-06-22T04:09:50;18.60;;;10.67;;
5121;SDS011;2563;52.242;7.956;2023-06-22T04:12:16;19.60;;;9.93;;
5121;SDS011;2563;52.242;7.956;2023-06-22T04:14:41;20.93;;;10.77;;
5121;SDS011;2563;52.242;7.956;2023-06-22T04:17:06;19.33;;;10.90;;
5121;SDS011;2563;52.242;7.956;2023-06-22T04:19:32;18.50;;;10.57;;
5121;SDS011;2563;52.242;7.956;2023-06-22T04:21:57;18.97;;;11.50;;
5121;SDS011;2563;52.242;7.956;2023-06-22T04:24:22;16.83;;;10.23;;
5121;SDS011;2563;52.242;7.956;2023-06-22T04:26:48;17.00;;;10.17;;
5121;SDS011;2563;52.242;7.956;2023-06-22T04:29:13;16.13;;;10.27;;
5121;SDS011;2563;52.242;7.956;2023-06-22T04:31:39;14.97;;;10.17;;
5121;SDS011;2563;52.242;7.956;2023-06-22T04:34:05;19.10;;;10.90;;
5121;SDS011;2563;52.242;7.956;2023-06-22T04:36:40;14.67;;;9.43;;
5121;SDS011;2563;52.242;7.956;2023-06-22T04:39:07;18.70;;;10.43;;
5121;SDS011;2563;52.242;7.956;2023-06-22T04:41:34;15.57;;;10.67;;
5121;SDS011;2563;52.242;7.956;2023-06-22T04:44:16;18.43;;;10.10;;
5121;SDS011;2563;52.242;7.956;2023-06-22T04:46:50;18.63;;;10.90;;
5121;SDS011;2563;52.242;7.956;2023-06-22T04:49:19;15.53;;;10.17;;
5121;SDS011;2563;52.242;7.956;2023-06-22T04:51:45;18.03;;;10.47;;
5121;SDS011;2563;52.242;7.956;2023-06-22T04:54:11;17.70;;;10.07;;
5121;SDS011;2563;52.242;7.956;2023-06-22T04:56:36;15.73;;;10.50;;
5121;SDS011;2563;52.242;7.956;2023-06-22T04:59:02;19.73;;;10.63;;
5121;SDS011;2563;52.242;7.956;2023-06-22T05:01:28;16.93;;;9.70;;
5121;SDS011;2563;52.242;7.956;2023-06-22T05:03:56;18.77;;;10.90;;
5121;SDS011;2563;52.242;7.956;2023-06-22T05:06:24;16.30;;;10.37;;
5121;SDS011;2563;52.242;7.956;2023-06-22T05:08:53;19.20;;;9.87;;
5121;SDS011;2563;52.242;7.956;2023-06-22T05:11:23;14.77;;;9.63;;
5121;SDS011;2563;52.242;7.956;2023-06-22T05:13:52;18.00;;;10.73;;
5121;SDS011;2563;52.242;7.956;2023-06-22T05:16:18;19.00;;;9.97;;
5121;SDS011;2563;52.242;7.956;2023-06-22T05:18:49;19.43;;;11.20;;
5121;SDS011;2563;52.242;7.956;2023-06-22T05:21:20;17.20;;;10.53;;
5121;SDS011;2563;52.242;7.956;2023-06-22T05:23:47;20.07;;;10.17;;
5121;SDS011;2563;52.242;7.956;2023-06-22T05:26:12;17.80;;;9.87;;
5121;SDS011;2563;52.242;7.956;2023-06-22T05:28:38;16.33;;;9.87;;
5121;SDS011;2563;52.242;7.956;2023-06-22T05:31:03;16.43;;;10.30;;
5121;SDS011;2563;52.242;7.956;2023-06-22T05:33:29;15.23;;;9.50;;
5121;SDS011;2563;52.242;7.956;2023-06-22T05:35:54;16.77;;;10.10;;
5121;SDS011;2563;52.242;7.956;2023-06-22T05:38:19;16.00;;;9.77;;
5121;SDS011;2563;52.242;7.956;2023-06-22T05:40:45;15.00;;;9.50;;
5121;SDS011;2563;52.242;7.956;2023-06-22T05:43:10;14.80;;;10.23;;
5121;SDS011;2563;52.242;7.956;2023-06-22T05:45:35;15.67;;;9.43;;
5121;SDS011;2563;52.242;7.956;2023-06-22T05:48:01;15.93;;;9.80;;
5121;SDS011;2563;52.242;7.956;2023-06-22T05:50:26;16.13;;;9.10;;
5121;SDS011;2563;52.242;7.956;2023-06-22T05:52:51;15.20;;;8.47;;
5121;SDS011;2563;52.242;7.956;2023-06-22T05:55:17;16.40;;;9.20;;
5121;SDS011;2563;52.242;7.956;2023-06-22T05:57:43;16.70;;;9.90;;
5121;SDS011;2563;52.242;7.956;2023-06-22T06:00:09;16.60;;;8.80;;
5121;SDS011;2563;52.242;7.956;2023-06-22T06:02:36;16.80;;;9.90;;
5121;SDS011;2563;52.242;7.956;2023-06-22T06:05:02;15.50;;;8.90;;
5121;SDS011;2563;52.242;7.956;2023-06-22T06:07:28;15.23;;;8.80;;
5121;SDS011;2563;52.242;7.956;2023-06-22T06:09:54;18.37;;;10.13;;
5121;SDS011;2563;52.242;7.956;2023-06-22T06:12:19;16.03;;;9.67;;
5121;SDS011;2563;52.242;7.956;2023-06-22T06:14:44;14.20;;;8.93;;
5121;SDS011;2563;52.242;7.956;2023-06-22T06:17:10;16.50;;;8.70;;
5121;SDS011;2563;52.242;7.956;2023-06-22T06:19:35;13.60;;;9.00;;
5121;SDS011;2563;52.242;7.956;2023-06-22T06:22:01;16.40;;;9.40;;
5121;SDS011;2563;52.242;7.956;2023-06-22T06:24:26;12.33;;;8.50;;
5121;SDS011;2563;52.242;7.956;2023-06-22T06:26:52;12.50;;;8.37;;
5121;SDS011;2563;52.242;7.956;2023-06-22T06:29:17;13.97;;;9.20;;
5121;SDS011;2563;52.242;7.956;2023-06-22T06:31:42;15.37;;;10.00;;
5121;SDS011;2563;52.242;7.956;2023-06-22T06:34:08;14.07;;;8.70;;
5121;SDS011;2563;52.242;7.956;2023-06-22T06:36:33;14.60;;;10.03;;
5121;SDS011;2563;52.242;7.956;2023-06-22T06:38:58;17.83;;;10.30;;
5121;SDS011;2563;52.242;7.956;2023-06-22T06:41:24;13.67;;;9.67;;
5121;SDS011;2563;52.242;7.956;2023-06-22T06:43:49;18.90;;;10.10;;
5121;SDS011;2563;52.242;7.956;2023-06-22T06:46:15;12.87;;;9.37;;
5121;SDS011;2563;52.242;7.956;2023-06-22T06:48:40;12.50;;;8.77;;
5121;SDS011;2563;52.242;7.956;2023-06-22T06:51:05;22.23;;;9.00;;
5121;SDS011;2563;52.242;7.956;2023-06-22T06:53:34;14.80;;;9.60;;
5121;SDS011;2563;52.242;7.956;2023-06-22T06:56:00;15.90;;;9.63;;
5121;SDS011;2563;52.242;7.956;2023-06-22T06:58:26;18.90;;;10.90;;
5121;SDS011;2563;52.242;7.956;2023-06-22T07:00:51;14.60;;;9.87;;
5121;SDS011;2563;52.242;7.956;2023-06-22T07:03:16;14.50;;;10.00;;
5121;SDS011;2563;52.242;7.956;2023-06-22T07:05:42;20.00;;;10.27;;
5121;SDS011;2563;52.242;7.956;2023-06-22T07:08:07;14.40;;;9.93;;
5121;SDS011;2563;52.242;7.956;2023-06-22T07:10:33;13.83;;;9.80;;
5121;SDS011;2563;52.242;7.956;2023-06-22T07:12:58;16.23;;;10.77;;
5121;SDS011;2563;52.242;7.956;2023-06-22T07:15:24;13.17;;;9.80;;
5121;SDS011;2563;52.242;7.956;2023-06-22T07:17:49;15.80;;;10.53;;
5121;SDS011;2563;52.242;7.956;2023-06-22T07:20:14;18.57;;;10.43;;
5121;SDS011;2563;52.242;7.956;2023-06-22T07:22:41;18.20;;;10.80;;
5121;SDS011;2563;52.242;7.956;2023-06-22T07:25:08;17.20;;;11.27;;
5121;SDS011;2563;52.242;7.956;2023-06-22T07:27:44;23.13;;;11.13;;
5121;SDS011;2563;52.242;7.956;2023-06-22T07:30:29;15.20;;;10.17;;
5121;SDS011;2563;52.242;7.956;2023-06-22T07:32:56;17.40;;;11.83;;
5121;SDS011;2563;52.242;7.956;2023-06-22T07:35:22;16.90;;;9.90;;
5121;SDS011;2563;52.242;7.956;2023-06-22T07:37:48;21.00;;;10.53;;
5121;SDS011;2563;52.242;7.956;2023-06-22T07:40:13;17.13;;;11.97;;
5121;SDS011;2563;52.242;7.956;2023-06-22T07:42:39;16.60;;;12.53;;
5121;SDS011;2563;52.242;7.956;2023-06-22T07:45:04;16.27;;;11.10;;
5121;SDS011;2563;52.242;7.956;2023-06-22T07:47:32;17.77;;;12.00;;
5121;SDS011;2563;52.242;7.956;2023-06-22T07:50:00;19.03;;;11.77;;
5121;SDS011;2563;52.242;7.956;2023-06-22T07:52:29;18.00;;;11.30;;
5121;SDS011;2563;52.242;7.956;2023-06-22T07:54:55;16.70;;;11.30;;
5121;SDS011;2563;52.242;7.956;2023-06-22T07:57:20;14.77;;;10.60;;
5121;SDS011;2563;52.242;7.956;2023-06-22T07:59:46;13.87;;;10.20;;
5121;SDS011;2563;52.242;7.956;2023-06-22T08:02:11;15.23;;;10.53;;
5121;SDS011;2563;52.242;7.956;2023-06-22T08:04:37;17.07;;;11.30;;
5121;SDS011;2563;52.242;7.956;2023-06-22T08:07:03;16.63;;;10.80;;
5121;SDS011;2563;52.242;7.956;2023-06-22T08:09:29;17.53;;;11.33;;
5121;SDS011;2563;52.242;7.956;2023-06-22T08:11:57;16.70;;;11.27;;
5121;SDS011;2563;52.242;7.956;2023-06-22T08:14:25;16.43;;;10.57;;
5121;SDS011;2563;52.242;7.956;2023-06-22T08:16:51;16.43;;;11.47;;
5121;SDS011;2563;52.242;7.956;2023-06-22T08:19:16;17.03;;;11.30;;
5121;SDS011;2563;52.242;7.956;2023-06-22T08:21:42;17.53;;;11.90;;
5121;SDS011;2563;52.242;7.956;2023-06-22T08:24:08;20.00;;;11.47;;
5121;SDS011;2563;52.242;7.956;2023-06-22T08:26:33;18.27;;;12.43;;
5121;SDS011;2563;52.242;7.956;2023-06-22T08:29:04;18.40;;;12.43;;
5121;SDS011;2563;52.242;7.956;2023-06-22T08:31:30;22.33;;;11.87;;
5121;SDS011;2563;52.242;7.956;2023-06-22T08:33:57;18.90;;;12.43;;
5121;SDS011;2563;52.242;7.956;2023-06-22T08:36:22;16.43;;;11.00;;
5121;SDS011;2563;52.242;7.956;2023-06-22T08:38:47;18.17;;;11.60;;
5121;SDS011;2563;52.242;7.956;2023-06-22T08:41:16;20.80;;;11.50;;
5121;SDS011;2563;52.242;7.956;2023-06-22T08:43:43;18.63;;;11.67;;
5121;SDS011;2563;52.242;7.956;2023-06-22T08:46:12;18.37;;;10.97;;
5121;SDS011;2563;52.242;7.956;2023-06-22T08:48:37;17.53;;;10.40;;
5121;SDS011;2563;52.242;7.956;2023-06-22T08:51:04;17.30;;;12.10;;
5121;SDS011;2563;52.242;7.956;2023-06-22T08:53:29;18.17;;;11.63;;
5121;SDS011;2563;52.242;7.956;2023-06-22T08:55:55;18.10;;;11.67;;
5121;SDS011;2563;52.242;7.956;2023-06-22T08:58:20;17.40;;;11.00;;
5121;SDS011;2563;52.242;7.956;2023-06-22T09:00:46;16.80;;;11.00;;
5121;SDS011;2563;52.242;7.956;2023-06-22T09:03:12;18.87;;;11.70;;
5121;SDS011;2563;52.242;7.956;2023-06-22T09:05:37;17.37;;;11.40;;
5121;SDS011;2563;52.242;7.956;2023-06-22T09:08:03;15.13;;;11.23;;
5121;SDS011;2563;52.242;7.956;2023-06-22T09:10:28;16.27;;;10.90;;
5121;SDS011;2563;52.242;7.956;2023-06-22T09:12:54;17.67;;;11.43;;
5121;SDS011;2563;52.242;7.956;2023-06-22T09:15:19;16.10;;;11.00;;
5121;SDS011;2563;52.242;7.956;2023-06-22T09:17:44;17.37;;;11.60;;
5121;SDS011;2563;52.242;7.956;2023-06-22T09:20:11;18.60;;;12.30;;
5121;SDS011;2563;52.242;7.956;2023-06-22T09:22:37;19.60;;;11.47;;
5121;SDS011;2563;52.242;7.956;2023-06-22T09:25:02;16.87;;;11.17;;
5121;SDS011;2563;52.242;7.956;2023-06-22T09:27:28;15.07;;;10.33;;
5121;SDS011;2563;52.242;7.956;2023-06-22T09:29:54;15.07;;;10.43;;
5121;SDS011;2563;52.242;7.956;2023-06-22T09:32:19;15.13;;;10.50;;
5121;SDS011;2563;52.242;7.956;2023-06-22T09:34:45;19.60;;;13.20;;
5121;SDS011;2563;52.242;7.956;2023-06-22T09:37:10;19.17;;;12.20;;
5121;SDS011;2563;52.242;7.956;2023-06-22T09:39:35;21.03;;;12.53;;
5121;SDS011;2563;52.242;7.956;2023-06-22T09:42:01;17.33;;;12.43;;
5121;SDS011;2563;52.242;7.956;2023-06-22T09:44:27;17.37;;;11.97;;
5121;SDS011;2563;52.242;7.956;2023-06-22T09:46:52;19.73;;;13.23;;
5121;SDS011;2563;52.242;7.956;2023-06-22T09:49:18;19.50;;;12.90;;
5121;SDS011;2563;52.242;7.956;2023-06-22T09:51:43;19.63;;;12.70;;
5121;SDS011;2563;52.242;7.956;2023-06-22T09:54:08;20.83;;;13.00;;
5121;SDS011;2563;52.242;7.956;2023-06-22T09:56:34;16.30;;;11.60;;
5121;SDS011;2563;52.242;7.956;2023-06-22T09:58:59;18.77;;;13.53;;
5121;SDS011;2563;52.242;7.956;2023-06-22T10:01:24;17.27;;;12.30;;
5121;SDS011;2563;52.242;7.956;2023-06-22T10:03:52;21.77;;;14.17;;
5121;SDS011;2563;52.242;7.956;2023-06-22T10:06:19;18.80;;;13.20;;
5121;SDS011;2563;52.242;7.956;2023-06-22T10:08:45;18.90;;;14.73;;
5121;SDS011;2563;52.242;7.956;2023-06-22T10:11:10;20.40;;;13.13;;
5121;SDS011;2563;52.242;7.956;2023-06-22T10:13:35;22.83;;;13.90;;
5121;SDS011;2563;52.242;7.956;2023-06-22T10:16:01;19.83;;;12.80;;
5121;SDS011;2563;52.242;7.956;2023-06-22T10:18:26;18.07;;;13.63;;
5121;SDS011;2563;52.242;7.956;2023-06-22T10:20:52;19.60;;;14.27;;
5121;SDS011;2563;52.242;7.956;2023-06-22T10:23:18;22.33;;;13.90;;
5121;SDS011;2563;52.242;7.956;2023-06-22T10:25:44;20.07;;;14.30;;
5121;SDS011;2563;52.242;7.956;2023-06-22T10:28:09;17.13;;;13.27;;
5121;SDS011;2563;52.242;7.956;2023-06-22T10:30:34;21.73;;;15.10;;
5121;SDS011;2563;52.242;7.956;2023-06-22T10:33:00;15.37;;;12.03;;
5121;SDS011;2563;52.242;7.956;2023-06-22T10:35:25;16.70;;;12.57;;
5121;SDS011;2563;52.242;7.956;2023-06-22T10:37:52;19.63;;;13.70;;
5121;SDS011;2563;52.242;7.956;2023-06-22T10:40:17;18.27;;;13.50;;
5121;SDS011;2563;52.242;7.956;2023-06-22T10:42:44;17.20;;;12.77;;
5121;SDS011;2563;52.242;7.956;2023-06-22T10:45:09;20.07;;;14.13;;
5121;SDS011;2563;52.242;7.956;2023-06-22T10:47:35;19.80;;;13.37;;
5121;SDS011;2563;52.242;7.956;2023-06-22T10:50:01;17.50;;;12.80;;
5121;SDS011;2563;52.242;7.956;2023-06-22T10:52:27;18.53;;;14.57;;
5121;SDS011;2563;52.242;7.956;2023-06-22T10:54:52;16.97;;;12.40;;
5121;SDS011;2563;52.242;7.956;2023-06-22T10:57:18;17.63;;;12.33;;
5121;SDS011;2563;52.242;7.956;2023-06-22T10:59:43;17.70;;;12.43;;
5121;SDS011;2563;52.242;7.956;2023-06-22T11:02:09;18.37;;;13.20;;
5121;SDS011;2563;52.242;7.956;2023-06-22T11:04:34;16.20;;;12.43;;
5121;SDS011;2563;52.242;7.956;2023-06-22T11:07:00;22.23;;;11.93;;
5121;SDS011;2563;52.242;7.956;2023-06-22T11:09:26;19.87;;;11.90;;
5121;SDS011;2563;52.242;7.956;2023-06-22T11:11:52;16.97;;;11.93;;
5121;SDS011;2563;52.242;7.956;2023-06-22T11:14:20;16.07;;;11.20;;
5121;SDS011;2563;52.242;7.956;2023-06-22T11:16:45;17.20;;;11.73;;
5121;SDS011;2563;52.242;7.956;2023-06-22T11:19:14;16.50;;;12.53;;
5121;SDS011;2563;52.242;7.956;2023-06-22T11:21:39;22.13;;;12.07;;
5121;SDS011;2563;52.242;7.956;2023-06-22T11:24:05;18.37;;;12.67;;
5121;SDS011;2563;52.242;7.956;2023-06-22T11:26:30;16.10;;;11.57;;
5121;SDS011;2563;52.242;7.956;2023-06-22T11:29:00;15.40;;;10.67;;
5121;SDS011;2563;52.242;7.956;2023-06-22T11:31:26;16.87;;;11.37;;
5121;SDS011;2563;52.242;7.956;2023-06-22T11:33:51;15.20;;;12.17;;
5121;SDS011;2563;52.242;7.956;2023-06-22T11:36:16;17.63;;;11.87;;
5121;SDS011;2563;52.242;7.956;2023-06-22T11:38:42;22.20;;;13.00;;
5121;SDS011;2563;52.242;7.956;2023-06-22T11:41:08;15.90;;;11.57;;
5121;SDS011;2563;52.242;7.956;2023-06-22T11:43:34;16.60;;;11.47;;
5121;SDS011;2563;52.242;7.956;2023-06-22T11:46:01;17.50;;;12.23;;
5121;SDS011;2563;52.242;7.956;2023-06-22T11:48:27;16.37;;;11.70;;
5121;SDS011;2563;52.242;7.956;2023-06-22T11:50:52;15.47;;;10.33;;
5121;SDS011;2563;52.242;7.956;2023-06-22T11:53:20;17.23;;;12.87;;
5121;SDS011;2563;52.242;7.956;2023-06-22T11:55:46;15.60;;;11.70;;
5121;SDS011;2563;52.242;7.956;2023-06-22T11:58:12;16.50;;;11.17;;
5121;SDS011;2563;52.242;7.956;2023-06-22T12:00:37;14.23;;;11.23;;
5121;SDS011;2563;52.242;7.956;2023-06-22T12:03:03;17.90;;;12.00;;
5121;SDS011;2563;52.242;7.956;2023-06-22T12:05:28;15.57;;;11.23;;
5121;SDS011;2563;52.242;7.956;2023-06-22T12:07:54;17.70;;;12.50;;
5121;SDS011;2563;52.242;7.956;2023-06-22T12:10:20;16.63;;;11.70;;
5121;SDS011;2563;52.242;7.956;2023-06-22T12:12:46;16.70;;;10.90;;
5121;SDS011;2563;52.242;7.956;2023-06-22T12:15:11;16.43;;;10.50;;
5121;SDS011;2563;52.242;7.956;2023-06-22T12:17:37;14.57;;;9.80;;
5121;SDS011;2563;52.242;7.956;2023-06-22T12:20:03;13.17;;;9.70;;
5121;SDS011;2563;52.242;7.956;2023-06-22T12:22:34;20.27;;;11.00;;
5121;SDS011;2563;52.242;7.956;2023-06-22T12:25:00;17.63;;;12.30;;
5121;SDS011;2563;52.242;7.956;2023-06-22T12:27:26;15.83;;;11.90;;
5121;SDS011;2563;52.242;7.956;2023-06-22T12:29:52;13.43;;;10.73;;
5121;SDS011;2563;52.242;7.956;2023-06-22T12:32:17;15.40;;;11.07;;
5121;SDS011;2563;52.242;7.956;2023-06-22T12:34:43;14.97;;;12.30;;
5121;SDS011;2563;52.242;7.956;2023-06-22T12:37:10;14.13;;;11.30;;
5121;SDS011;2563;52.242;7.956;2023-06-22T12:39:36;13.97;;;10.97;;
5121;SDS011;2563;52.242;7.956;2023-06-22T12:42:01;22.73;;;12.70;;
5121;SDS011;2563;52.242;7.956;2023-06-22T12:44:27;17.80;;;10.50;;
5121;SDS011;2563;52.242;7.956;2023-06-22T12:46:52;16.70;;;11.03;;
5121;SDS011;2563;52.242;7.956;2023-06-22T12:49:18;34.10;;;12.53;;
5121;SDS011;2563;52.242;7.956;2023-06-22T12:51:44;26.00;;;11.53;;
5121;SDS011;2563;52.242;7.956;2023-06-22T12:54:10;28.47;;;12.87;;
5121;SDS011;2563;52.242;7.956;2023-06-22T12:56:36;16.20;;;12.10;;
5121;SDS011;2563;52.242;7.956;2023-06-22T12:59:03;14.43;;;11.23;;
5121;SDS011;2563;52.242;7.956;2023-06-22T13:01:29;22.53;;;10.70;;
5121;SDS011;2563;52.242;7.956;2023-06-22T13:03:55;14.23;;;10.80;;
5121;SDS011;2563;52.242;7.956;2023-06-22T13:06:21;16.97;;;10.97;;
5121;SDS011;2563;52.242;7.956;2023-06-22T13:08:46;23.67;;;12.13;;
5121;SDS011;2563;52.242;7.956;2023-06-22T13:11:12;36.67;;;12.97;;
5121;SDS011;2563;52.242;7.956;2023-06-22T13:13:38;14.73;;;11.37;;
5121;SDS011;2563;52.242;7.956;2023-06-22T13:16:03;30.93;;;12.80;;
5121;SDS011;2563;52.242;7.956;2023-06-22T13:18:29;21.60;;;12.27;;
5121;SDS011;2563;52.242;7.956;2023-06-22T13:20:54;18.37;;;12.00;;
5121;SDS011;2563;52.242;7.956;2023-06-22T13:23:20;17.70;;;11.37;;
5121;SDS011;2563;52.242;7.956;2023-06-22T13:25:46;15.70;;;11.50;;
5121;SDS011;2563;52.242;7.956;2023-06-22T13:28:11;18.43;;;12.30;;
5121;SDS011;2563;52.242;7.956;2023-06-22T13:30:39;61.30;;;14.67;;
5121;SDS011;2563;52.242;7.956;2023-06-22T13:33:05;18.50;;;12.37;;
5121;SDS011;2563;52.242;7.956;2023-06-22T13:35:30;19.80;;;12.50;;
5121;SDS011;2563;52.242;7.956;2023-06-22T13:37:56;19.30;;;14.93;;
5121;SDS011;2563;52.242;7.956;2023-06-22T13:40:21;18.30;;;14.70;;
5121;SDS011;2563;52.242;7.956;2023-06-22T13:42:47;22.27;;;15.07;;
5121;SDS011;2563;52.242;7.956;2023-06-22T13:45:12;18.63;;;14.17;;
5121;SDS011;2563;52.242;7.956;2023-06-22T13:47:37;18.73;;;14.33;;
5121;SDS011;2563;52.242;7.956;2023-06-22T13:50:03;21.13;;;14.90;;
5121;SDS011;2563;52.242;7.956;2023-06-22T13:52:29;24.77;;;16.50;;
5121;SDS011;2563;52.242;7.956;2023-06-22T13:54:54;24.17;;;17.43;;
5121;SDS011;2563;52.242;7.956;2023-06-22T13:57:19;23.37;;;16.17;;
5121;SDS011;2563;52.242;7.956;2023-06-22T13:59:45;25.20;;;15.40;;
5121;SDS011;2563;52.242;7.956;2023-06-22T14:02:11;23.33;;;15.93;;
5121;SDS011;2563;52.242;7.956;2023-06-22T14:04:36;20.60;;;15.77;;
5121;SDS011;2563;52.242;7.956;2023-06-22T14:07:02;23.83;;;17.00;;
5121;SDS011;2563;52.242;7.956;2023-06-22T14:09:27;23.20;;;16.63;;
5121;SDS011;2563;52.242;7.956;2023-06-22T14:11:54;22.30;;;16.20;;
5121;SDS011;2563;52.242;7.956;2023-06-22T14:14:20;22.10;;;15.50;;
5121;SDS011;2563;52.242;7.956;2023-06-22T14:16:45;20.60;;;16.10;;
5121;SDS011;2563;52.242;7.956;2023-06-22T14:19:11;20.03;;;14.47;;
5121;SDS011;2563;52.242;7.956;2023-06-22T14:21:36;23.17;;;15.83;;
5121;SDS011;2563;52.242;7.956;2023-06-22T14:24:01;23.67;;;16.53;;
5121;SDS011;2563;52.242;7.956;2023-06-22T14:26:27;22.80;;;15.23;;
5121;SDS011;2563;52.242;7.956;2023-06-22T14:28:52;20.53;;;14.50;;
5121;SDS011;2563;52.242;7.956;2023-06-22T14:31:18;22.17;;;16.00;;
5121;SDS011;2563;52.242;7.956;2023-06-22T14:33:48;22.53;;;15.90;;
5121;SDS011;2563;52.242;7.956;2023-06-22T14:36:15;25.50;;;15.43;;
5121;SDS011;2563;52.242;7.956;2023-06-22T14:38:42;20.33;;;14.43;;
5121;SDS011;2563;52.242;7.956;2023-06-22T14:41:07;28.13;;;14.70;;
5121;SDS011;2563;52.242;7.956;2023-06-22T14:43:32;21.30;;;13.33;;
5121;SDS011;2563;52.242;7.956;2023-06-22T14:45:58;21.73;;;15.23;;
5121;SDS011;2563;52.242;7.956;2023-06-22T14:48:23;23.60;;;14.50;;
5121;SDS011;2563;52.242;7.956;2023-06-22T14:50:49;19.40;;;13.30;;
5121;SDS011;2563;52.242;7.956;2023-06-22T14:53:14;17.60;;;13.20;;
5121;SDS011;2563;52.242;7.956;2023-06-22T14:55:40;20.23;;;14.50;;